Time;durP1;ratioP1;P1;durP2;ratioP2;P2;SDS_P1;SDS_P2;PMS_P1;PMS_P2;Temp;Humidity;BMP_temperature;BMP_pressure;BME280_temperature;BME280_humidity;BME280_pressure;Samples;Min_cycle;Max_cycle;Signal;HPM_P1;HPM_P2
2022/03/26 00:03:49;;;;;;;24.33;16.95;;;;;;;11.89;32.67;101416.66;10353548;28;20092;-62
2022/03/26 00:08:50;;;;;;;21.83;16.33;;;;;;;11.90;32.69;101423.72;10353926;28;20103;-64
2022/03/26 00:13:51;;;;;;;24.80;18.10;;;;;;;11.88;33.01;101433.66;10355622;28;20197;-61
2022/03/26 00:18:53;;;;;;;20.20;16.52;;;;;;;11.81;32.90;101439.41;10355943;28;20056;-61
2022/03/26 00:23:54;;;;;;;24.58;17.20;;;;;;;11.75;33.13;101429.09;10351213;28;20064;-62
2022/03/26 00:28:56;;;;;;;24.20;16.45;;;;;;;11.70;33.36;101428.56;10354441;28;20060;-61
2022/03/26 00:33:57;;;;;;;22.55;18.05;;;;;;;11.64;33.52;101428.97;10363043;28;20520;-62
2022/03/26 00:38:59;;;;;;;23.98;17.30;;;;;;;11.53;33.86;101427.03;10354944;28;20048;-62
2022/03/26 00:44:01;;;;;;;22.23;16.13;;;;;;;11.46;33.75;101423.06;10357901;28;20052;-62
2022/03/26 00:49:02;;;;;;;23.15;17.23;;;;;;;11.31;33.81;101420.41;10349427;28;20054;-62
2022/03/26 00:54:04;;;;;;;21.30;16.67;;;;;;;11.17;34.01;101414.28;10352625;28;20790;-63
2022/03/26 00:59:06;;;;;;;27.70;17.27;;;;;;;11.20;34.53;101430.94;10353977;28;20120;-61
2022/03/26 01:04:08;;;;;;;22.50;16.27;;;;;;;11.01;34.27;101425.91;10351693;28;20037;-61
2022/03/26 01:09:09;;;;;;;23.83;18.52;;;;;;;11.03;35.12;101431.16;10352633;28;20060;-61
2022/03/26 01:14:11;;;;;;;24.45;16.23;;;;;;;10.98;34.59;101423.47;10351559;28;20041;-62
2022/03/26 01:19:12;;;;;;;23.40;17.30;;;;;;;10.89;35.05;101419.56;10352479;28;20132;-63
2022/03/26 01:24:13;;;;;;;24.60;17.42;;;;;;;10.81;35.11;101408.56;10350514;28;20041;-63
2022/03/26 01:29:15;;;;;;;21.90;16.25;;;;;;;10.78;35.21;101425.56;10349067;28;20524;-62
2022/03/26 01:34:17;;;;;;;23.30;16.10;;;;;;;10.75;35.39;101411.59;10349706;28;20045;-61
2022/03/26 01:39:20;;;;;;;21.55;16.60;;;;;;;10.86;35.50;101425.09;10355826;28;20045;-61
2022/03/26 01:44:22;;;;;;;21.33;16.77;;;;;;;10.81;35.36;101410.34;10347191;28;20562;-61
2022/03/26 01:49:23;;;;;;;24.70;17.33;;;;;;;10.77;35.52;101417.69;10352497;28;20099;-61
2022/03/26 01:54:27;;;;;;;22.25;16.10;;;;;;;10.73;35.63;101414.38;10350845;28;20057;-62
2022/03/26 01:59:28;;;;;;;22.65;16.98;;;;;;;10.73;35.59;101405.50;10349086;28;20101;-62
2022/03/26 02:04:29;;;;;;;23.40;16.45;;;;;;;10.69;35.54;101401.31;10352496;28;20046;-62
2022/03/26 02:09:35;;;;;;;30.30;18.73;;;;;;;10.74;35.32;101410.72;10349545;28;20055;-62
2022/03/26 02:14:36;;;;;;;24.95;17.98;;;;;;;10.64;35.39;101400.75;10356175;28;20054;-62
2022/03/26 02:19:38;;;;;;;22.85;17.02;;;;;;;10.58;35.27;101378.91;10350908;28;20073;-60
2022/03/26 02:24:39;;;;;;;24.80;17.58;;;;;;;10.61;35.45;101392.03;10349199;28;20048;-62
2022/03/26 02:29:40;;;;;;;25.83;16.35;;;;;;;10.35;35.66;101352.84;10349661;28;20202;-62
2022/03/26 02:34:42;;;;;;;25.52;17.67;;;;;;;10.56;35.80;101391.44;10350229;28;20595;-61
2022/03/26 02:40:04;;;;;;;23.40;15.52;;;;;;;10.50;36.02;101394.47;10351040;28;20128;-61
2022/03/26 02:45:07;;;;;;;23.88;17.08;;;;;;;10.48;35.69;101403.50;10351000;28;20121;-61
2022/03/26 02:50:09;;;;;;;25.88;16.80;;;;;;;10.37;36.35;101390.88;10349622;28;20133;-61
2022/03/26 02:55:10;;;;;;;23.95;16.15;;;;;;;10.32;36.44;101390.28;10349648;28;20512;-61
2022/03/26 03:00:14;;;;;;;22.55;17.38;;;;;;;10.33;36.47;101399.94;10358655;28;20050;-62
2022/03/26 03:05:16;;;;;;;23.75;17.48;;;;;;;10.29;36.48;101398.44;10358493;28;20653;-61
2022/03/26 03:10:18;;;;;;;21.52;15.55;;;;;;;10.21;36.56;101397.09;10357875;28;20152;-62
2022/03/26 03:15:20;;;;;;;21.77;17.38;;;;;;;10.07;37.18;101383.75;10362483;28;20088;-62
2022/03/26 03:20:22;;;;;;;23.75;16.92;;;;;;;10.14;37.05;101395.75;10356023;28;20132;-62
2022/03/26 03:25:26;;;;;;;29.33;18.05;;;;;;;9.99;37.40;101392.22;10360157;28;20050;-64
2022/03/26 03:30:28;;;;;;;25.63;17.58;;;;;;;10.03;37.43;101398.22;10353242;28;20068;-62
2022/03/26 03:35:29;;;;;;;24.70;16.23;;;;;;;10.05;37.49;101413.13;10353868;28;20046;-62
2022/03/26 03:40:30;;;;;;;22.73;15.98;;;;;;;9.62;38.51;101366.94;10352700;28;20153;-62
2022/03/26 03:45:32;;;;;;;21.35;16.30;;;;;;;9.89;38.30;101407.88;10354413;28;20049;-62
2022/03/26 03:50:34;;;;;;;23.90;17.40;;;;;;;9.79;38.63;101406.69;10350168;28;20056;-59
2022/03/26 03:55:36;;;;;;;24.58;16.75;;;;;;;9.75;38.73;101399.84;10352167;28;20077;-62
2022/03/26 04:00:37;;;;;;;23.20;17.00;;;;;;;9.48;39.60;101397.00;10355236;28;20049;-62
2022/03/26 04:05:40;;;;;;;25.90;18.00;;;;;;;9.48;39.64;101387.22;10357240;28;20053;-61
2022/03/26 04:10:42;;;;;;;25.08;17.77;;;;;;;9.50;40.03;101395.97;10353993;28;20132;-62
2022/03/26 04:15:43;;;;;;;28.25;17.63;;;;;;;9.36;40.16;101396.75;10355716;28;20526;-62
2022/03/26 04:20:45;;;;;;;24.52;17.55;;;;;;;9.37;40.51;101409.09;10352841;28;20061;-62
2022/03/26 04:25:46;;;;;;;25.20;18.33;;;;;;;9.43;40.36;101415.00;10355785;28;20057;-62
2022/03/26 04:30:48;;;;;;;25.33;17.00;;;;;;;9.47;40.38;101428.03;10350286;28;20784;-62
2022/03/26 04:35:49;;;;;;;25.60;16.98;;;;;;;9.45;40.64;101427.25;10350083;28;20049;-62
2022/03/26 04:40:51;;;;;;;26.88;18.95;;;;;;;9.41;40.90;101427.53;10350287;28;20045;-62
2022/03/26 04:45:52;;;;;;;25.08;18.05;;;;;;;9.37;41.05;101421.53;10350367;28;20208;-61
2022/03/26 04:50:54;;;;;;;27.10;18.00;;;;;;;9.34;41.05;101427.88;10351075;28;20096;-62
2022/03/26 04:55:55;;;;;;;22.00;17.77;;;;;;;9.29;41.42;101429.06;10351487;28;20184;-62
2022/03/26 05:00:56;;;;;;;21.08;17.30;;;;;;;9.33;41.52;101436.78;10347039;28;20183;-62
2022/03/26 05:05:58;;;;;;;25.98;18.77;;;;;;;9.30;42.00;101430.78;10347350;28;20049;-61
2022/03/26 05:10:59;;;;;;;25.52;18.70;;;;;;;9.25;42.28;101440.81;10351265;28;20108;-63
2022/03/26 05:16:03;;;;;;;29.02;19.92;;;;;;;9.20;42.20;101428.66;10348107;28;20816;-62
2022/03/26 05:21:07;;;;;;;26.10;18.88;;;;;;;9.29;42.26;101445.88;10353182;28;20436;-62
2022/03/26 05:26:09;;;;;;;23.23;18.33;;;;;;;9.22;42.46;101438.31;10345447;28;20136;-63
2022/03/26 05:31:10;;;;;;;27.17;19.00;;;;;;;9.33;42.70;101441.25;10344858;28;20049;-63
2022/03/26 05:36:12;;;;;;;25.00;19.60;;;;;;;9.28;42.54;101449.47;10364131;28;20127;-61
2022/03/26 05:41:13;;;;;;;28.40;19.85;;;;;;;9.36;42.61;101462.31;10349290;28;20140;-62
2022/03/26 05:46:15;;;;;;;28.30;19.65;;;;;;;9.11;42.57;101421.22;10334885;28;20205;-66
2022/03/26 05:51:17;;;;;;;26.90;20.05;;;;;;;9.33;42.71;101457.19;10353096;28;20076;-62
2022/03/26 05:56:19;;;;;;;25.83;19.10;;;;;;;9.46;42.81;101475.97;10351564;28;20057;-62
2022/03/26 06:01:22;;;;;;;27.42;18.85;;;;;;;9.49;43.13;101481.97;10349886;28;20050;-62
2022/03/26 06:06:24;;;;;;;27.15;19.92;;;;;;;9.48;42.75;101464.28;10346390;28;20053;-61
2022/03/26 06:11:27;;;;;;;26.95;19.73;;;;;;;9.65;42.73;101475.75;10349441;28;20084;-63
2022/03/26 06:16:29;;;;;;;30.17;20.10;;;;;;;9.82;42.71;101486.31;10356141;28;20773;-62
2022/03/26 06:21:30;;;;;;;26.42;19.38;;;;;;;9.93;42.44;101479.50;10352161;28;20134;-61
2022/03/26 06:26:32;;;;;;;28.63;20.38;;;;;;;10.07;42.22;101477.75;10348647;28;20069;-63
2022/03/26 06:31:33;;;;;;;25.77;18.20;;;;;;;10.35;41.49;101492.09;10348542;28;20077;-62
2022/03/26 06:36:35;;;;;;;28.40;21.20;;;;;;;10.46;41.43;101480.78;10361179;28;20172;-63
2022/03/26 06:41:39;;;;;;;28.60;20.02;;;;;;;10.75;41.13;101496.81;10359585;28;20042;-61
2022/03/26 06:46:41;;;;;;;28.55;19.27;;;;;;;10.85;40.70;101487.28;10357220;28;20067;-62
2022/03/26 06:51:42;;;;;;;27.15;20.60;;;;;;;11.07;40.83;101499.28;10356420;28;20107;-62
2022/03/26 06:56:44;;;;;;;24.10;19.27;;;;;;;11.28;40.05;101503.25;10357280;28;20045;-62
2022/03/26 07:01:45;;;;;;;28.73;19.67;;;;;;;11.43;40.01;101509.41;10357630;28;20140;-65
2022/03/26 07:06:47;;;;;;;26.75;20.23;;;;;;;11.52;39.92;101512.47;10361072;28;20141;-61
2022/03/26 07:11:48;;;;;;;29.77;21.45;;;;;;;11.75;39.46;101511.81;10362100;28;20050;-61
2022/03/26 07:16:49;;;;;;;27.60;19.55;;;;;;;11.98;39.17;101520.13;10358615;28;20140;-61
2022/03/26 07:21:51;;;;;;;24.75;19.63;;;;;;;12.13;38.80;101518.25;10357378;28;20045;-61
2022/03/26 07:26:52;;;;;;;28.52;21.25;;;;;;;12.25;38.46;101512.13;10357455;28;20057;-62
2022/03/26 07:31:54;;;;;;;26.27;20.45;;;;;;;12.56;38.10;101531.38;10354957;28;20444;-61
2022/03/26 07:36:56;;;;;;;28.75;21.17;;;;;;;12.76;38.06;101537.16;10356223;28;20300;-61
2022/03/26 07:41:57;;;;;;;26.65;20.10;;;;;;;12.93;37.63;101534.16;10355015;28;20120;-62
2022/03/26 07:46:59;;;;;;;25.58;21.23;;;;;;;13.17;37.76;101542.28;10354880;28;20049;-62
2022/03/26 07:52:00;;;;;;;26.45;20.88;;;;;;;13.44;37.09;101544.81;10355837;28;20045;-62
2022/03/26 07:57:02;;;;;;;25.63;20.27;;;;;;;13.58;36.83;101541.13;10356642;28;20056;-62
2022/03/26 08:02:04;;;;;;;33.92;22.83;;;;;;;13.66;36.51;101545.06;10357239;28;20049;-61
2022/03/26 08:07:06;;;;;;;30.65;20.33;;;;;;;13.86;36.21;101539.13;10355964;28;20064;-61
2022/03/26 08:12:09;;;;;;;50.40;24.02;;;;;;;14.33;35.92;101552.59;10372527;28;20698;-61
2022/03/26 08:17:10;;;;;;;29.65;21.00;;;;;;;14.67;35.59;101561.63;10358500;28;20541;-65
2022/03/26 08:22:12;;;;;;;25.85;20.45;;;;;;;14.83;35.06;101537.16;10363864;28;20452;-62
2022/03/26 08:27:14;;;;;;;28.02;21.65;;;;;;;15.15;34.57;101549.84;10360439;28;20049;-61
2022/03/26 08:32:15;;;;;;;30.83;20.92;;;;;;;15.53;34.20;101548.59;10354030;28;20736;-62
2022/03/26 08:37:17;;;;;;;32.40;22.17;;;;;;;15.71;34.07;101545.41;10355240;28;20535;-62
2022/03/26 08:42:18;;;;;;;30.58;23.38;;;;;;;15.91;33.98;101549.16;10353188;28;20054;-63
2022/03/26 08:47:19;;;;;;;27.75;21.02;;;;;;;16.33;33.05;101556.44;10357792;28;20131;-62
2022/03/26 08:52:21;;;;;;;29.90;22.23;;;;;;;16.63;33.06;101560.19;10354798;28;20519;-61
2022/03/26 08:57:23;;;;;;;29.13;22.52;;;;;;;16.80;32.70;101543.47;10353498;28;20058;-63
2022/03/26 09:02:24;;;;;;;37.13;23.27;;;;;;;17.07;32.39;101555.53;10354991;28;20737;-63
2022/03/26 09:07:26;;;;;;;25.88;21.90;;;;;;;17.52;31.55;101548.91;10362954;28;20062;-61
2022/03/26 09:12:27;;;;;;;30.55;22.45;;;;;;;17.89;31.25;101551.84;10354592;28;20075;-61
2022/03/26 09:17:29;;;;;;;23.67;20.38;;;;;;;18.23;30.99;101537.97;10351385;28;20313;-61
2022/03/26 09:22:30;;;;;;;26.90;21.38;;;;;;;18.25;30.73;101552.13;10352796;28;20144;-63
2022/03/26 09:27:32;;;;;;;28.63;22.67;;;;;;;18.71;30.06;101542.44;10351655;28;20068;-62
2022/03/26 09:32:34;;;;;;;23.60;20.73;;;;;;;19.07;29.59;101537.25;10353103;28;20140;-62
2022/03/26 09:37:35;;;;;;;33.17;22.00;;;;;;;19.68;28.98;101551.16;10350400;28;20771;-62
2022/03/26 09:42:38;;;;;;;27.30;21.98;;;;;;;20.08;28.04;101552.59;10350929;28;20101;-63
2022/03/26 09:47:39;;;;;;;27.13;20.67;;;;;;;19.90;28.16;101546.34;10346385;28;20042;-62
2022/03/26 09:52:41;;;;;;;26.17;19.75;;;;;;;20.30;27.08;101553.16;10350935;28;20554;-62
2022/03/26 09:57:42;;;;;;;27.73;21.65;;;;;;;20.98;26.26;101557.03;10351580;28;20075;-62
2022/03/26 10:02:44;;;;;;;31.85;23.17;;;;;;;21.19;26.26;101546.66;10353955;28;20057;-61
2022/03/26 10:07:47;;;;;;;25.58;20.35;;;;;;;21.64;25.02;101538.41;10354286;28;20060;-61
2022/03/26 10:12:52;;;;;;;26.23;19.92;;;;;;;22.88;23.92;101526.56;10350533;28;20057;-62
2022/03/26 10:18:08;;;;;;;23.42;19.13;;;;;;;25.02;20.72;101540.63;10354471;28;20049;-62
2022/03/26 10:23:10;;;;;;;22.60;18.65;;;;;;;28.92;16.99;101530.84;10352220;28;20041;-62
2022/03/26 10:28:22;;;;;;;26.37;19.70;;;;;;;30.41;15.34;101521.63;10356097;28;20136;-61
2022/03/26 10:33:28;;;;;;;;;;;;;;;29.54;16.01;101527.69;10347694;28;20049;-63
2022/03/26 10:38:33;;;;;;;23.50;19.65;;;;;;;28.14;18.30;101517.00;10351916;28;19925;-61
2022/03/26 10:43:41;;;;;;;20.90;18.70;;;;;;;28.07;18.19;101503.31;10352767;28;20526;-59
2022/03/26 10:48:43;;;;;;;27.80;17.85;;;;;;;29.45;16.91;101507.06;10353027;28;20597;-61
2022/03/26 10:53:46;;;;;;;;;;;;;;;33.61;13.30;101508.63;10350035;28;20049;-61
2022/03/26 10:58:48;;;;;;;18.55;16.65;;;;;;;36.56;11.37;101499.09;10350451;28;20047;-61
2022/03/26 11:03:49;;;;;;;17.27;15.52;;;;;;;37.13;10.72;101485.50;10348606;28;20686;-61
2022/03/26 11:08:53;;;;;;;19.73;16.23;;;;;;;38.14;9.81;101485.91;10350749;28;20052;-62
2022/03/26 11:14:00;;;;;;;19.45;14.73;;;;;;;39.12;9.53;101487.63;10347516;28;20062;-62
2022/03/26 11:19:13;;;;;;;16.35;12.35;;;;;;;39.53;8.54;101474.28;10349840;28;20052;-62
2022/03/26 11:24:27;;;;;;;15.10;12.85;;;;;;;39.74;8.24;101469.41;10348886;28;20065;-62
2022/03/26 11:29:45;;;;;;;18.88;12.30;;;;;;;40.88;7.73;101465.44;10355677;28;20045;-62
2022/03/26 11:34:56;;;;;;;15.38;12.00;;;;;;;40.23;7.91;101461.16;10355096;28;20080;-64
2022/03/26 11:39:57;;;;;;;15.95;12.55;;;;;;;41.20;7.66;101456.34;10352743;28;20494;-63
2022/03/26 11:50:45;;;;;;;15.75;13.13;;;;;;;42.33;7.00;101436.84;10354340;28;20045;-64
2022/03/26 11:55:48;;;;;;;13.82;12.43;;;;;;;42.38;6.97;101405.97;10352963;28;20042;-64
2022/03/26 12:00:58;;;;;;;13.68;11.50;;;;;;;42.74;6.56;101413.63;10358638;28;20784;-63
2022/03/26 12:11:27;;;;;;;13.20;11.20;;;;;;;42.68;7.08;101410.09;10351070;28;20133;-63
2022/03/26 12:16:50;;;;;;;12.90;10.10;;;;;;;43.42;6.28;101406.19;10351042;28;20107;-63
2022/03/26 12:21:52;;;;;;;12.05;10.88;;;;;;;43.95;6.20;101382.06;10348630;28;20079;-63
2022/03/26 12:26:54;;;;;;;16.70;12.75;;;;;;;44.03;6.31;101379.63;10355746;28;20911;-63
2022/03/26 12:31:58;;;;;;;12.93;10.77;;;;;;;44.65;6.11;101376.72;10353287;28;20152;-63
2022/03/26 12:37:03;;;;;;;9.52;8.30;;;;;;;44.71;5.54;101368.09;10353685;28;20042;-64
2022/03/26 12:42:05;;;;;;;14.77;9.35;;;;;;;44.88;5.35;101370.94;10351745;28;20065;-64
2022/03/26 12:47:06;;;;;;;17.60;9.07;;;;;;;45.12;5.21;101358.41;10352103;28;20467;-64
2022/03/26 12:52:07;;;;;;;9.98;9.05;;;;;;;44.89;5.37;101344.50;10354107;28;20049;-63
2022/03/26 12:57:10;;;;;;;11.73;9.30;;;;;;;43.35;5.94;101357.31;10351866;28;20058;-63
2022/03/26 13:02:11;;;;;;;12.45;8.52;;;;;;;43.72;5.97;101349.59;10350379;28;20056;-65
2022/03/26 13:07:13;;;;;;;9.98;8.65;;;;;;;43.92;5.88;101349.06;10352183;28;20053;-65
2022/03/26 13:12:25;;;;;;;11.77;8.27;;;;;;;43.85;5.68;101340.31;10348878;28;20249;-64
2022/03/26 13:17:26;;;;;;;9.18;8.27;;;;;;;43.08;6.11;101333.91;10350559;28;20052;-66
2022/03/26 13:22:28;;;;;;;11.23;10.00;;;;;;;43.10;6.81;101331.59;10355344;28;20053;-62
2022/03/26 13:27:30;;;;;;;12.80;11.70;;;;;;;41.56;7.50;101326.44;10358073;28;20077;-63
2022/03/26 13:32:31;;;;;;;15.18;13.65;;;;;;;39.13;8.96;101317.53;10351785;28;20059;-63
2022/03/26 13:37:32;;;;;;;14.00;12.02;;;;;;;34.80;11.97;101320.63;10355080;28;20045;-63
2022/03/26 13:42:43;;;;;;;13.82;10.40;;;;;;;32.89;12.51;101294.88;10348364;28;20060;-64
2022/03/26 13:47:44;;;;;;;21.52;11.07;;;;;;;32.00;13.37;101313.44;10346629;28;20532;-64
2022/03/26 13:52:47;;;;;;;13.50;9.38;;;;;;;29.95;14.63;101309.59;10349222;28;20079;-63
2022/03/26 13:57:49;;;;;;;14.65;9.35;;;;;;;29.75;14.62;101297.94;10344272;28;20060;-62
2022/03/26 14:02:52;;;;;;;9.60;7.50;;;;;;;29.37;14.88;101299.75;10350243;28;20053;-61
2022/03/26 14:07:58;;;;;;;14.45;7.93;;;;;;;28.71;14.58;101293.63;10349302;28;20537;-61
2022/03/26 14:13:00;;;;;;;24.02;8.27;;;;;;;28.29;15.26;101289.59;10350818;28;20049;-61
2022/03/26 14:18:02;;;;;;;15.02;8.60;;;;;;;28.10;15.90;101292.16;10349165;28;20049;-60
2022/03/26 14:23:06;;;;;;;14.30;8.05;;;;;;;27.46;15.99;101291.81;10349100;28;20060;-61
2022/03/26 14:28:10;;;;;;;13.10;8.55;;;;;;;26.77;17.00;101279.31;10352145;28;20050;-61
2022/03/26 14:33:13;;;;;;;13.60;9.02;;;;;;;26.37;17.37;101277.22;10348706;28;20049;-61
2022/03/26 14:38:15;;;;;;;14.30;10.13;;;;;;;25.40;18.91;101276.16;10344621;28;20049;-61
2022/03/26 14:43:16;;;;;;;;;;;;;;;24.83;19.99;101275.16;10345144;28;20157;-61
2022/03/26 14:48:19;;;;;;;16.70;10.68;;;;;;;24.69;20.23;101277.75;10345490;28;19925;-61
2022/03/26 14:53:20;;;;;;;14.30;10.57;;;;;;;24.50;20.35;101265.59;10349206;28;20098;-61
2022/03/26 14:58:22;;;;;;;16.00;11.40;;;;;;;24.10;20.70;101259.63;10350722;28;20252;-62
2022/03/26 15:03:24;;;;;;;14.45;11.35;;;;;;;23.68;21.14;101254.81;10354026;28;20073;-61
2022/03/26 15:08:27;;;;;;;18.92;13.45;;;;;;;23.33;22.14;101263.47;10351931;28;20053;-62
2022/03/26 15:13:28;;;;;;;14.68;12.00;;;;;;;23.16;22.26;101270.88;10352414;28;20055;-62
2022/03/26 15:18:29;;;;;;;16.05;12.68;;;;;;;23.04;22.36;101253.31;10349917;28;20163;-62
2022/03/26 15:23:31;;;;;;;18.65;13.40;;;;;;;22.76;23.41;101262.00;10349792;28;20076;-62
2022/03/26 15:28:32;;;;;;;23.35;13.18;;;;;;;22.36;23.52;101263.91;10353503;28;20541;-62
2022/03/26 15:33:34;;;;;;;18.95;14.23;;;;;;;22.18;23.87;101267.66;10350919;28;20092;-62
2022/03/26 15:38:35;;;;;;;17.92;12.10;;;;;;;21.86;24.36;101265.91;10351491;28;20525;-62
2022/03/26 15:43:42;;;;;;;25.52;12.27;;;;;;;21.80;24.05;101263.88;10352852;28;20057;-60
2022/03/26 15:48:43;;;;;;;13.88;10.60;;;;;;;21.33;25.16;101249.19;10355433;28;20053;-61
2022/03/26 15:53:44;;;;;;;13.38;10.35;;;;;;;21.06;25.18;101253.91;10353002;28;20516;-61
2022/03/26 15:58:46;;;;;;;12.48;8.93;;;;;;;21.06;25.24;101272.84;10351377;28;20396;-63
2022/03/26 16:03:47;;;;;;;15.85;9.77;;;;;;;20.79;25.64;101271.31;10351309;28;20049;-61
2022/03/26 16:08:49;;;;;;;12.57;8.13;;;;;;;20.76;25.90;101267.09;10352118;28;20439;-62
2022/03/26 16:13:50;;;;;;;13.07;6.93;;;;;;;20.47;25.84;101262.06;10352472;28;20152;-60
2022/03/26 16:18:52;;;;;;;11.23;6.30;;;;;;;20.31;25.77;101270.94;10349599;28;20054;-61
2022/03/26 16:23:56;;;;;;;9.30;6.40;;;;;;;20.28;25.92;101269.44;10353269;28;20562;-61
2022/03/26 16:28:58;;;;;;;11.55;5.22;;;;;;;20.32;25.96;101275.34;10353311;28;20083;-60
2022/03/26 16:33:59;;;;;;;7.80;4.10;;;;;;;20.04;25.91;101278.28;10350412;28;20046;-61
2022/03/26 16:39:00;;;;;;;7.03;4.38;;;;;;;19.89;26.09;101282.56;10352296;28;20054;-61
2022/03/26 16:44:02;;;;;;;12.02;4.82;;;;;;;19.65;26.31;101267.00;10346605;28;20669;-61
2022/03/26 16:49:03;;;;;;;6.85;5.97;;;;;;;19.53;26.53;101278.09;10351042;28;20056;-60
2022/03/26 16:54:05;;;;;;;8.43;4.80;;;;;;;19.48;27.26;101280.41;10353547;28;20144;-61
2022/03/26 16:59:07;;;;;;;4.10;3.20;;;;;;;19.37;27.37;101278.81;10349472;28;20059;-62
2022/03/26 17:04:09;;;;;;;5.38;3.58;;;;;;;19.20;28.28;101277.81;10350060;28;20221;-61
2022/03/26 17:09:11;;;;;;;7.28;4.45;;;;;;;18.99;28.25;101270.03;10352881;28;20051;-62
2022/03/26 17:14:12;;;;;;;6.43;4.00;;;;;;;19.01;28.90;101284.22;10356499;28;20081;-61
2022/03/26 17:19:14;;;;;;;6.35;4.30;;;;;;;18.97;29.24;101285.53;10348854;28;20062;-62
2022/03/26 17:24:15;;;;;;;7.88;4.40;;;;;;;18.79;29.72;101288.16;10350001;28;20149;-61
2022/03/26 17:29:16;;;;;;;5.88;5.05;;;;;;;18.54;30.06;101271.72;10349270;28;20046;-61
2022/03/26 17:34:18;;;;;;;6.22;5.55;;;;;;;18.42;30.52;101278.34;10350055;28;20052;-62
2022/03/26 17:39:19;;;;;;;8.95;5.95;;;;;;;18.37;30.96;101265.31;10345268;28;20644;-61
2022/03/26 17:44:21;;;;;;;9.40;7.07;;;;;;;18.20;31.07;101260.69;10346878;28;20052;-61
2022/03/26 17:49:22;;;;;;;6.13;5.53;;;;;;;18.13;31.56;101275.75;10349599;28;20057;-61
2022/03/26 17:54:24;;;;;;;7.38;5.85;;;;;;;17.98;31.23;101276.22;10346283;28;20194;-61
2022/03/26 17:59:26;;;;;;;7.07;5.72;;;;;;;17.92;32.03;101287.59;10347831;28;20128;-61
2022/03/26 18:04:28;;;;;;;7.07;5.32;;;;;;;17.77;31.57;101289.03;10347984;28;20052;-62
2022/03/26 18:09:29;;;;;;;6.93;6.07;;;;;;;17.73;32.00;101288.47;10361391;28;20096;-61
2022/03/26 18:14:31;;;;;;;6.80;5.10;;;;;;;17.69;31.72;101297.84;10348284;28;20059;-61
2022/03/26 18:19:32;;;;;;;5.80;5.22;;;;;;;17.54;31.77;101292.03;10347413;28;20052;-61
2022/03/26 18:24:34;;;;;;;7.25;5.07;;;;;;;17.32;31.54;101301.25;10339404;28;20046;-61
2022/03/26 18:29:35;;;;;;;9.52;5.32;;;;;;;17.20;32.24;101299.72;10345308;28;20143;-61
2022/03/26 18:34:36;;;;;;;5.18;4.68;;;;;;;17.26;32.42;101324.22;10346995;28;20068;-65
2022/03/26 18:39:38;;;;;;;6.50;5.03;;;;;;;17.08;32.68;101315.13;10310338;28;1061549;-61
2022/03/26 18:44:41;;;;;;;5.40;4.90;;;;;;;17.08;32.67;101328.59;10348895;28;20049;-61
2022/03/26 18:49:42;;;;;;;7.55;5.50;;;;;;;16.99;33.08;101322.19;10346644;28;20053;-61
2022/03/26 18:54:43;;;;;;;6.50;5.68;;;;;;;16.99;33.36;101334.81;10347795;28;20049;-61
2022/03/26 18:59:45;;;;;;;6.55;5.85;;;;;;;16.83;33.03;101317.34;10348961;28;20671;-61
2022/03/26 19:04:47;;;;;;;6.88;6.03;;;;;;;16.82;33.54;101342.53;10349787;28;20063;-61
2022/03/26 19:09:48;;;;;;;6.60;6.00;;;;;;;16.80;34.06;101336.44;10349881;28;20045;-62
2022/03/26 19:14:49;;;;;;;7.60;6.93;;;;;;;16.70;34.18;101343.63;10350053;28;22278;-62
2022/03/26 19:19:51;;;;;;;9.30;6.20;;;;;;;16.61;34.09;101330.00;10349504;28;20167;-62
2022/03/26 19:24:52;;;;;;;7.40;6.70;;;;;;;16.63;34.83;101351.38;10348576;28;20050;-62
2022/03/26 19:29:54;;;;;;;6.85;6.15;;;;;;;16.59;34.43;101355.34;10363488;28;20064;-61
2022/03/26 19:34:55;;;;;;;8.10;6.80;;;;;;;16.44;35.30;101360.25;10351719;28;20133;-61
2022/03/26 19:39:57;;;;;;;10.02;6.80;;;;;;;16.26;35.94;101347.41;10354612;28;20053;-62
2022/03/26 19:44:58;;;;;;;8.65;7.85;;;;;;;16.29;35.86;101367.81;10355605;28;20056;-61
2022/03/26 19:49:59;;;;;;;11.18;7.82;;;;;;;16.13;35.44;101359.38;10351655;28;20091;-61
2022/03/26 19:55:02;;;;;;;10.23;7.93;;;;;;;16.03;35.92;101367.34;10358052;28;20054;-61
2022/03/26 20:00:04;;;;;;;9.50;8.45;;;;;;;15.87;36.68;101376.72;10356365;28;20559;-61
2022/03/26 20:05:07;;;;;;;11.63;8.65;;;;;;;15.67;36.99;101373.03;10364777;28;20824;-61
2022/03/26 20:10:11;;;;;;;12.40;10.30;;;;;;;15.68;37.04;101381.94;10354638;28;20105;-61
2022/03/26 20:15:13;;;;;;;;;;;;;;;15.71;37.55;101384.34;10353348;28;20045;-62
2022/03/26 20:20:14;;;;;;;11.13;9.57;;;;;;;15.61;37.46;101394.16;10355898;28;19925;-61
2022/03/26 20:25:15;;;;;;;10.90;8.30;;;;;;;15.55;37.67;101396.38;10356194;28;20136;-66
2022/03/26 20:30:17;;;;;;;12.27;10.65;;;;;;;15.38;38.19;101400.44;10353816;28;20141;-61
2022/03/26 20:35:18;;;;;;;11.70;9.77;;;;;;;15.20;38.47;101375.16;10351900;28;20046;-62
2022/03/26 20:40:20;;;;;;;10.70;9.07;;;;;;;15.11;39.19;101390.16;10355823;28;20532;-62
2022/03/26 20:45:24;;;;;;;12.25;10.10;;;;;;;15.19;38.88;101400.25;10350156;28;20129;-62
2022/03/26 20:50:26;;;;;;;10.65;9.40;;;;;;;15.19;38.85;101421.72;10349516;28;20402;-61
2022/03/26 20:55:28;;;;;;;11.82;9.23;;;;;;;15.09;38.50;101416.25;10345716;28;20045;-62
2022/03/26 21:00:31;;;;;;;11.52;9.68;;;;;;;14.97;38.92;101409.22;10356447;28;20068;-62
2022/03/26 21:05:33;;;;;;;10.45;9.35;;;;;;;14.95;39.43;101419.19;10357288;28;20112;-62
2022/03/26 21:10:34;;;;;;;13.25;11.55;;;;;;;14.84;39.50;101414.72;10354342;28;20053;-64
2022/03/26 21:15:36;;;;;;;16.13;11.13;;;;;;;14.78;39.20;101432.13;10353595;28;20056;-62
2022/03/26 21:20:38;;;;;;;12.45;11.20;;;;;;;14.75;39.77;101428.84;10353790;28;21057;-63
2022/03/26 21:25:45;;;;;;;17.35;10.90;;;;;;;14.70;39.36;101431.03;10352643;28;20052;-62
2022/03/26 21:30:48;;;;;;;12.23;11.05;;;;;;;14.65;40.07;101439.44;10350699;28;20053;-62
2022/03/26 21:35:49;;;;;;;13.07;11.75;;;;;;;14.60;40.65;101446.97;10353929;28;20096;-62
2022/03/26 21:40:52;;;;;;;13.80;11.73;;;;;;;14.58;40.62;101439.03;10350507;28;20054;-63
2022/03/26 21:45:54;;;;;;;14.13;11.98;;;;;;;14.54;40.92;101444.75;10349907;28;20476;-62
2022/03/26 21:50:56;;;;;;;16.58;13.25;;;;;;;14.53;40.83;101438.53;10348703;28;20064;-61
2022/03/26 21:55:58;;;;;;;16.55;13.07;;;;;;;14.45;41.19;101449.00;10351822;28;20539;-60
2022/03/26 22:01:00;;;;;;;16.73;12.60;;;;;;;14.31;40.74;101436.69;10356768;28;20051;-61
2022/03/26 22:06:02;;;;;;;15.73;12.35;;;;;;;14.39;40.74;101454.84;10350393;28;20045;-61
2022/03/26 22:11:03;;;;;;;13.70;12.27;;;;;;;14.37;41.30;101457.66;10351299;28;20042;-61
2022/03/26 22:16:04;;;;;;;14.93;13.13;;;;;;;14.18;41.65;101441.28;10350921;28;20057;-62
2022/03/26 22:21:06;;;;;;;15.82;12.90;;;;;;;14.13;41.94;101444.31;10347994;28;20892;-61
2022/03/26 22:26:07;;;;;;;19.80;13.80;;;;;;;14.10;41.64;101456.13;10352766;28;20049;-61
2022/03/26 22:31:09;;;;;;;15.43;13.32;;;;;;;14.08;42.40;101452.72;10346451;28;20063;-61
2022/03/26 22:36:10;;;;;;;14.10;11.57;;;;;;;14.05;42.40;101436.88;10347020;28;20045;-62
2022/03/26 22:41:12;;;;;;;16.25;13.05;;;;;;;14.12;42.32;101451.47;10346717;28;20113;-62
2022/03/26 22:46:13;;;;;;;14.48;12.55;;;;;;;13.99;42.78;101453.41;10351150;28;20131;-61
2022/03/26 22:51:15;;;;;;;14.90;12.65;;;;;;;13.83;42.88;101447.53;10350552;28;20096;-61
2022/03/26 22:56:16;;;;;;;16.55;13.85;;;;;;;13.81;43.31;101457.47;10348173;28;20220;-62
2022/03/26 23:01:30;;;;;;;14.00;12.40;;;;;;;13.72;43.16;101459.88;10348541;28;20096;-61